createdAt,value
2018-06-14T00:00:11.791Z,25.5
2018-06-14T00:01:12.691Z,25.6
2018-06-14T00:02:13.692Z,25.5
2018-06-14T00:03:14.687Z,25.6
2018-06-14T00:04:15.690Z,25.6
2018-06-14T00:05:16.842Z,25.5
2018-06-14T00:06:17.688Z,25.6
2018-06-14T00:07:18.683Z,25.5
2018-06-14T00:08:19.682Z,25.6
2018-06-14T00:09:20.682Z,25.6
2018-06-14T00:10:21.829Z,25.6
2018-06-14T00:11:22.690Z,25.7
2018-06-14T00:12:23.681Z,25.5
2018-06-14T00:13:24.679Z,25.6
2018-06-14T00:14:25.680Z,25.6
2018-06-14T00:15:26.825Z,25.6
2018-06-14T00:16:27.675Z,25.5
2018-06-14T00:17:28.729Z,25.5
2018-06-14T00:18:29.672Z,25.5
2018-06-14T00:19:30.675Z,25.6
2018-06-14T00:20:31.717Z,25.5
2018-06-14T00:21:32.670Z,25.4
2018-06-14T00:22:33.669Z,25.5
2018-06-14T00:23:34.666Z,25.5
2018-06-14T00:24:35.667Z,25.5
2018-06-14T00:25:36.667Z,25.5
2018-06-14T00:26:37.663Z,25.6
2018-06-14T00:27:38.661Z,25.6
2018-06-14T00:28:39.659Z,25.6
2018-06-14T00:29:40.654Z,25.5
2018-06-14T00:30:41.808Z,25.6
2018-06-14T00:31:42.661Z,25.5
2018-06-14T00:32:43.655Z,25.6
2018-06-14T00:33:44.656Z,25.5
2018-06-14T00:34:45.656Z,25.5
2018-06-14T00:35:46.800Z,25.6
2018-06-14T00:36:47.649Z,25.6
2018-06-14T00:37:48.650Z,25.4
2018-06-14T00:38:49.649Z,25.5
2018-06-14T00:39:50.647Z,25.5
2018-06-14T00:40:51.798Z,25.5
2018-06-14T00:41:52.643Z,25.5
2018-06-14T00:42:53.643Z,25.5
2018-06-14T00:43:54.650Z,25.6
2018-06-14T00:44:55.643Z,25.6
2018-06-14T00:45:56.689Z,25.5
2018-06-14T00:46:57.639Z,25.5
2018-06-14T00:47:58.640Z,25.5
2018-06-14T00:48:59.640Z,25.6
2018-06-14T00:50:00.639Z,25.5
2018-06-14T00:51:01.781Z,25.5
2018-06-14T00:52:02.637Z,25.5
2018-06-14T00:53:03.630Z,25.6
2018-06-14T00:54:04.632Z,25.5
2018-06-14T00:55:05.632Z,25.5
2018-06-14T00:56:06.630Z,25.6
2018-06-14T00:57:07.626Z,25.6
2018-06-14T00:58:08.631Z,25.5
2018-06-14T00:59:09.622Z,25.5
2018-06-14T01:00:10.629Z,25.5
2018-06-14T01:01:11.672Z,25.5
2018-06-14T01:02:12.620Z,25.6
2018-06-14T01:03:13.626Z,25.6
2018-06-14T01:04:14.621Z,25.5
2018-06-14T01:05:15.619Z,25.5
2018-06-14T01:06:16.664Z,25.5
2018-06-14T01:07:17.614Z,25.5
2018-06-14T01:08:18.614Z,25.5
2018-06-14T01:09:19.612Z,25.5
2018-06-14T01:10:20.613Z,25.5
2018-06-14T01:11:21.611Z,25.6
2018-06-14T01:12:22.609Z,25.5
2018-06-14T01:13:23.614Z,25.5
2018-06-14T01:14:24.608Z,25.5
2018-06-14T01:15:25.609Z,25.5
2018-06-14T01:16:26.654Z,25.5
2018-06-14T01:17:27.603Z,25.5
2018-06-14T01:18:28.605Z,25.5
2018-06-14T01:19:29.601Z,25.4
2018-06-14T01:20:30.603Z,25.5
2018-06-14T01:21:31.749Z,25.4
2018-06-14T01:22:32.596Z,25.5
2018-06-14T01:23:33.599Z,25.4
2018-06-14T01:24:34.600Z,25.5
2018-06-14T01:25:35.591Z,25.4
2018-06-14T01:26:36.745Z,25.4
2018-06-14T01:27:37.590Z,25.4
2018-06-14T01:28:38.589Z,25.5
2018-06-14T01:29:39.591Z,25.5
2018-06-14T01:30:40.588Z,25.5
2018-06-14T01:31:41.637Z,25.5
2018-06-14T01:32:42.586Z,25.6
2018-06-14T01:33:43.583Z,25.4
2018-06-14T01:34:44.583Z,25.5
2018-06-14T01:35:45.581Z,25.5
2018-06-14T01:36:46.582Z,25.4
2018-06-14T01:37:47.580Z,25.5
2018-06-14T01:38:48.578Z,25.4
2018-06-14T01:39:49.584Z,25.5
2018-06-14T01:40:50.575Z,25.5
2018-06-14T01:41:51.577Z,25.5
2018-06-14T01:42:52.574Z,25.4
2018-06-14T01:43:53.573Z,25.4
2018-06-14T01:44:54.569Z,25.5
2018-06-14T01:45:55.570Z,25.5
2018-06-14T01:46:56.618Z,25.5
2018-06-14T01:47:57.572Z,25.3
2018-06-14T01:48:58.565Z,25.5
2018-06-14T01:49:59.565Z,25.4
2018-06-14T01:51:00.567Z,25.5
2018-06-14T01:52:01.709Z,25.5
2018-06-14T01:53:02.562Z,25.4
2018-06-14T01:54:03.560Z,25.4
2018-06-14T01:55:04.559Z,25.4
2018-06-14T01:56:05.559Z,25.5
2018-06-14T01:57:06.709Z,25.5
2018-06-14T01:58:07.551Z,25.3
2018-06-14T01:59:08.555Z,25.4
2018-06-14T02:00:09.561Z,25.5
2018-06-14T02:01:10.553Z,25.3
2018-06-14T02:02:11.703Z,25.5
2018-06-14T02:03:12.550Z,25.4
2018-06-14T02:04:13.549Z,25.4
2018-06-14T02:05:14.548Z,25.4
2018-06-14T02:06:15.548Z,25.5
2018-06-14T02:07:16.595Z,25.4
2018-06-14T02:08:17.548Z,25.4
2018-06-14T02:09:18.543Z,25.5
2018-06-14T02:10:19.544Z,25.4
2018-06-14T02:11:20.553Z,25.5
2018-06-14T02:12:21.539Z,25.3
2018-06-14T02:13:22.540Z,25.5
2018-06-14T02:14:23.539Z,25.5
2018-06-14T02:15:24.540Z,25.5
2018-06-14T02:16:25.535Z,25.5
2018-06-14T02:17:26.634Z,25.5
2018-06-14T02:18:27.534Z,25.5
2018-06-14T02:19:28.538Z,25.4
2018-06-14T02:20:29.537Z,25.4
2018-06-14T02:21:30.531Z,25.4
2018-06-14T02:22:31.579Z,25.5
2018-06-14T02:23:32.528Z,25.4
2018-06-14T02:24:33.529Z,25.5
2018-06-14T02:25:34.534Z,25.5
2018-06-14T02:26:35.522Z,25.5
2018-06-14T02:27:36.675Z,25.4
2018-06-14T02:28:37.518Z,25.4
2018-06-14T02:29:38.521Z,25.4
2018-06-14T02:30:39.524Z,25.4
2018-06-14T02:31:40.520Z,25.5
2018-06-14T02:32:41.664Z,25.4
2018-06-14T02:33:42.515Z,25.4
2018-06-14T02:34:43.519Z,25.4
2018-06-14T02:35:44.513Z,25.5
2018-06-14T02:36:45.510Z,25.3
2018-06-14T02:37:46.612Z,25.3
2018-06-14T02:38:47.516Z,25.4
2018-06-14T02:39:48.507Z,25.4
2018-06-14T02:40:49.508Z,25.4
2018-06-14T02:41:50.508Z,25.6
2018-06-14T02:42:51.863Z,25.4
2018-06-14T02:43:52.510Z,25.4
2018-06-14T02:44:53.506Z,25.5
2018-06-14T02:45:54.502Z,25.4
2018-06-14T02:46:55.499Z,25.4
2018-06-14T02:47:56.650Z,25.4
2018-06-14T02:48:57.501Z,25.4
2018-06-14T02:49:58.500Z,25.4
2018-06-14T02:50:59.496Z,25.5
2018-06-14T02:52:00.498Z,25.4
2018-06-14T02:53:01.845Z,25.4
2018-06-14T02:54:02.495Z,25.3
2018-06-14T02:55:03.492Z,25.3
2018-06-14T02:56:04.493Z,25.4
2018-06-14T02:57:05.491Z,25.4
2018-06-14T02:58:06.638Z,25.3
2018-06-14T02:59:07.484Z,25.4
2018-06-14T03:00:08.484Z,25.4
2018-06-14T03:01:09.486Z,25.3
2018-06-14T03:02:10.483Z,25.4
2018-06-14T03:03:11.632Z,25.4
2018-06-14T03:04:12.485Z,25.5
2018-06-14T03:05:13.487Z,25.5
2018-06-14T03:06:14.477Z,25.4
2018-06-14T03:07:15.482Z,25.3
2018-06-14T03:08:16.526Z,25.4
2018-06-14T03:09:17.487Z,25.4
2018-06-14T03:10:18.478Z,25.3
2018-06-14T03:11:19.474Z,25.4
2018-06-14T03:12:20.474Z,25.3
2018-06-14T03:13:21.572Z,25.5
2018-06-14T03:14:22.469Z,25.3
2018-06-14T03:15:23.469Z,25.4
2018-06-14T03:16:24.467Z,25.5
2018-06-14T03:17:25.469Z,25.4
2018-06-14T03:18:26.512Z,25.4
2018-06-14T03:19:27.465Z,25.4
2018-06-14T03:20:28.461Z,25.4
2018-06-14T03:21:29.462Z,25.3
2018-06-14T03:22:30.461Z,25.3
2018-06-14T03:23:31.609Z,25.4
2018-06-14T03:24:32.460Z,25.4
2018-06-14T03:25:33.454Z,25.3
2018-06-14T03:26:34.453Z,25.4
2018-06-14T03:27:35.457Z,25.3
2018-06-14T03:28:36.505Z,25.4
2018-06-14T03:29:37.453Z,25.5
2018-06-14T03:30:38.450Z,25.3
2018-06-14T03:31:39.444Z,25.4
2018-06-14T03:32:40.446Z,25.3
2018-06-14T03:33:41.648Z,25.4
2018-06-14T03:34:42.449Z,25.3
2018-06-14T03:35:43.444Z,25.3
2018-06-14T03:36:44.442Z,25.3
2018-06-14T03:37:45.442Z,25.4
2018-06-14T03:38:46.545Z,25.3
2018-06-14T03:39:47.439Z,25.4
2018-06-14T03:40:48.504Z,25.4
2018-06-14T03:41:49.439Z,25.3
2018-06-14T03:42:50.435Z,25.3
2018-06-14T03:43:51.436Z,25.3
2018-06-14T03:44:52.436Z,25.3
2018-06-14T03:45:53.434Z,25.3
2018-06-14T03:46:54.432Z,25.3
2018-06-14T03:47:55.430Z,25.3
2018-06-14T03:48:56.574Z,25.4
2018-06-14T03:49:57.426Z,25.3
2018-06-14T03:50:58.429Z,25.4
2018-06-14T03:51:59.527Z,25.3
2018-06-14T03:53:00.422Z,25.3
2018-06-14T03:54:01.475Z,25.3
2018-06-14T03:55:02.419Z,25.2
2018-06-14T03:56:03.420Z,25.3
2018-06-14T03:57:04.420Z,25.3
2018-06-14T03:58:05.420Z,25.3
2018-06-14T03:59:06.418Z,25.4
2018-06-14T04:00:07.416Z,25.3
2018-06-14T04:01:08.420Z,25.3
2018-06-14T04:02:09.414Z,25.3
2018-06-14T04:03:10.415Z,25.3
2018-06-14T04:04:11.561Z,25.3
2018-06-14T04:05:12.411Z,25.3
2018-06-14T04:06:13.406Z,25.2
2018-06-14T04:07:14.407Z,25.3
2018-06-14T04:08:15.405Z,25.3
2018-06-14T04:09:16.557Z,25.1
2018-06-14T04:10:17.429Z,25.3
2018-06-14T04:11:18.403Z,25.2
2018-06-14T04:12:19.408Z,25.2
2018-06-14T04:13:20.400Z,25.3
2018-06-14T04:14:21.549Z,25.3
2018-06-14T04:15:22.405Z,25.2
2018-06-14T04:16:23.397Z,25.2
2018-06-14T04:17:24.394Z,25.3
2018-06-14T04:18:25.392Z,25.3
2018-06-14T04:19:26.447Z,25.2
2018-06-14T04:20:27.448Z,25.4
2018-06-14T04:21:28.391Z,25.3
2018-06-14T04:22:29.392Z,25.3
2018-06-14T04:23:30.389Z,25.2
2018-06-14T04:24:31.534Z,25.3
2018-06-14T04:25:32.388Z,25.1
2018-06-14T04:26:33.386Z,25.2
2018-06-14T04:27:34.381Z,25.3
2018-06-14T04:28:35.382Z,25.3
2018-06-14T04:29:36.482Z,25.3
2018-06-14T04:30:37.384Z,25.2
2018-06-14T04:31:38.379Z,25.3
2018-06-14T04:32:39.378Z,25.2
2018-06-14T04:33:40.379Z,25.2
2018-06-14T04:34:41.426Z,25.2
2018-06-14T04:35:42.378Z,25.1
2018-06-14T04:36:43.374Z,25.2
2018-06-14T04:37:44.371Z,25.2
2018-06-14T04:38:45.369Z,25.2
2018-06-14T04:39:46.477Z,25.2
2018-06-14T04:40:47.367Z,25.1
2018-06-14T04:41:48.367Z,25.1
2018-06-14T04:42:49.367Z,25.3
2018-06-14T04:43:50.365Z,25.2
2018-06-14T04:44:51.566Z,25.2
2018-06-14T04:45:52.415Z,25.1
2018-06-14T04:46:53.363Z,25.2
2018-06-14T04:47:54.361Z,25.3
2018-06-14T04:48:55.362Z,25.2
2018-06-14T04:49:56.359Z,25.2
2018-06-14T04:50:57.357Z,25.2
2018-06-14T04:51:58.361Z,25.2
2018-06-14T04:52:59.356Z,25.2
2018-06-14T04:54:00.355Z,25.2
2018-06-14T04:55:01.404Z,25.1
2018-06-14T04:56:02.398Z,25.2
2018-06-14T04:57:03.347Z,25.2
2018-06-14T04:58:04.352Z,25.3
2018-06-14T04:59:05.350Z,25.2
2018-06-14T05:00:06.499Z,25.2
2018-06-14T05:01:07.344Z,25.3
2018-06-14T05:02:08.346Z,25.1
2018-06-14T05:03:09.344Z,25.2
2018-06-14T05:04:10.345Z,25.2
2018-06-14T05:05:11.390Z,25.3
2018-06-14T05:06:12.342Z,25.3
2018-06-14T05:07:13.341Z,25.2
2018-06-14T05:08:14.337Z,25.2
2018-06-14T05:09:15.355Z,25.1
2018-06-14T05:10:16.334Z,25.1
2018-06-14T05:11:17.333Z,25.3
2018-06-14T05:12:18.331Z,25.3
2018-06-14T05:13:19.329Z,25.3
2018-06-14T05:14:20.331Z,25.3
2018-06-14T05:15:21.381Z,25.3
2018-06-14T05:16:22.330Z,25.3
2018-06-14T05:17:23.328Z,25.2
2018-06-14T05:18:24.325Z,25.3
2018-06-14T05:19:25.326Z,25.3
2018-06-14T05:20:26.325Z,25.3
2018-06-14T05:21:27.324Z,25.2
2018-06-14T05:22:28.322Z,25.2
2018-06-14T05:23:29.408Z,25.2
2018-06-14T05:24:30.318Z,25.3
2018-06-14T05:25:31.321Z,25.2
2018-06-14T05:26:32.319Z,25.2
2018-06-14T05:27:33.319Z,25.3
2018-06-14T05:28:34.321Z,25.3
2018-06-14T05:29:35.367Z,25.4
2018-06-14T05:30:36.501Z,25.3
2018-06-14T05:31:37.310Z,25.2
2018-06-14T05:32:38.309Z,25.3
2018-06-14T05:33:39.307Z,25.3
2018-06-14T05:34:40.307Z,25.3
2018-06-14T05:35:41.658Z,25.2
2018-06-14T05:36:42.306Z,25.3
2018-06-14T05:37:43.305Z,25.4
2018-06-14T05:38:44.303Z,25.3
2018-06-14T05:39:45.307Z,25.3
2018-06-14T05:40:46.300Z,25.3
2018-06-14T05:41:47.302Z,25.4
2018-06-14T05:42:48.297Z,25.3
2018-06-14T05:43:49.299Z,25.4
2018-06-14T05:44:50.312Z,25.3
2018-06-14T05:45:51.294Z,25.4
2018-06-14T05:46:52.292Z,25.3
2018-06-14T05:47:53.383Z,25.3
2018-06-14T05:48:54.294Z,25.4
2018-06-14T05:49:55.289Z,25.3
2018-06-14T05:50:56.640Z,25.4
2018-06-14T05:51:57.291Z,25.5
2018-06-14T05:52:58.284Z,25.4
2018-06-14T05:53:59.287Z,25.3
2018-06-14T05:55:00.286Z,25.4
2018-06-14T05:56:01.297Z,25.4
2018-06-14T05:57:02.283Z,25.3
2018-06-14T05:58:03.281Z,25.3
2018-06-14T05:59:04.287Z,25.5
2018-06-14T06:00:05.281Z,25.5
2018-06-14T06:01:06.280Z,25.3
2018-06-14T06:02:07.272Z,25.3
2018-06-14T06:03:08.278Z,25.3
2018-06-14T06:04:09.277Z,25.4
2018-06-14T06:05:10.272Z,25.3
2018-06-14T06:06:11.374Z,25.3
2018-06-14T06:07:12.271Z,25.2
2018-06-14T06:08:13.276Z,25.5
2018-06-14T06:09:14.273Z,25.4
2018-06-14T06:10:15.267Z,25.3
2018-06-14T06:11:16.267Z,25.3
2018-06-14T06:12:17.267Z,25.3
2018-06-14T06:13:18.270Z,25.3
2018-06-14T06:14:19.263Z,25.4
2018-06-14T06:15:20.313Z,25.3
2018-06-14T06:16:21.258Z,25.3
2018-06-14T06:17:22.259Z,25.3
2018-06-14T06:18:23.259Z,25.3
2018-06-14T06:19:24.261Z,25.4
2018-06-14T06:20:25.257Z,25.4
2018-06-14T06:21:26.952Z,25.3
2018-06-14T06:22:27.252Z,25.4
2018-06-14T06:23:28.291Z,25.3
2018-06-14T06:24:29.251Z,25.4
2018-06-14T06:25:30.247Z,25.3
2018-06-14T06:26:31.351Z,25.4
2018-06-14T06:27:32.252Z,25.3
2018-06-14T06:28:33.246Z,25.3
2018-06-14T06:29:34.243Z,25.3
2018-06-14T06:30:35.243Z,25.5
2018-06-14T06:31:36.594Z,25.3
2018-06-14T06:32:37.246Z,25.3
2018-06-14T06:33:38.238Z,25.3
2018-06-14T06:34:39.243Z,25.4
2018-06-14T06:35:40.245Z,25.3
2018-06-14T06:36:41.286Z,25.3
2018-06-14T06:37:42.238Z,25.2
2018-06-14T06:38:43.237Z,25.3
2018-06-14T06:39:44.233Z,25.3
2018-06-14T06:40:45.231Z,25.3
2018-06-14T06:41:46.328Z,25.3
2018-06-14T06:42:47.226Z,25.3
2018-06-14T06:43:48.226Z,25.3
2018-06-14T06:44:49.237Z,25.3
2018-06-14T06:45:50.225Z,25.3
2018-06-14T06:46:51.222Z,25.2
2018-06-14T06:47:52.224Z,25.3
2018-06-14T06:48:53.220Z,25.2
2018-06-14T06:49:54.222Z,25.2
2018-06-14T06:50:55.225Z,25.3
2018-06-14T06:51:56.378Z,25.3
2018-06-14T06:52:57.219Z,25.3
2018-06-14T06:53:58.215Z,25.3
2018-06-14T06:54:59.218Z,25.3
2018-06-14T06:56:00.219Z,25.2
2018-06-14T06:57:01.211Z,25.3
2018-06-14T06:58:02.216Z,25.2
2018-06-14T06:59:03.210Z,25.2
2018-06-14T07:00:04.207Z,25.2
2018-06-14T07:01:05.205Z,25.3
2018-06-14T07:02:06.209Z,25.2
2018-06-14T07:03:07.211Z,25.3
2018-06-14T07:04:08.203Z,25.3
2018-06-14T07:05:09.204Z,25.2
2018-06-14T07:06:10.291Z,25.2
2018-06-14T07:07:11.249Z,25.3
2018-06-14T07:08:12.198Z,25.2
2018-06-14T07:09:13.200Z,25.2
2018-06-14T07:10:14.205Z,25.2
2018-06-14T07:11:15.196Z,25.2
2018-06-14T07:12:16.193Z,25.3
2018-06-14T07:13:17.197Z,25.1
2018-06-14T07:14:18.194Z,25.3
2018-06-14T07:15:19.193Z,25.2
2018-06-14T07:16:20.190Z,25.2
2018-06-14T07:17:21.188Z,25.1
2018-06-14T07:18:22.185Z,25.2
2018-06-14T07:19:23.191Z,25.2
2018-06-14T07:20:24.187Z,25.3
2018-06-14T07:21:25.189Z,25.2
2018-06-14T07:22:26.283Z,25.2
2018-06-14T07:23:27.181Z,25.2
2018-06-14T07:24:28.184Z,25.3
2018-06-14T07:25:29.181Z,25.1
2018-06-14T07:26:30.176Z,25.2
2018-06-14T07:27:31.175Z,25.2
2018-06-14T07:28:32.181Z,25.2
2018-06-14T07:29:33.176Z,25.3
2018-06-14T07:30:34.175Z,25.2
2018-06-14T07:31:35.172Z,25
2018-06-14T07:32:36.521Z,25.3
2018-06-14T07:33:37.171Z,25.1
2018-06-14T07:34:38.167Z,25.2
2018-06-14T07:35:39.170Z,25.2
2018-06-14T07:36:40.164Z,25.3
2018-06-14T07:37:41.264Z,25.1
2018-06-14T07:38:42.164Z,25.2
2018-06-14T07:39:43.163Z,25.1
2018-06-14T07:40:44.160Z,25.1
2018-06-14T07:41:45.161Z,25.3
2018-06-14T07:42:46.162Z,25.2
2018-06-14T07:43:47.158Z,25.2
2018-06-14T07:44:48.160Z,25.1
2018-06-14T07:45:49.153Z,25.3
2018-06-14T07:46:50.155Z,25.2
2018-06-14T07:47:51.304Z,25.2
2018-06-14T07:48:52.151Z,25.3
2018-06-14T07:49:53.150Z,25.3
2018-06-14T07:50:54.153Z,25.2
2018-06-14T07:51:55.150Z,25.2
2018-06-14T07:52:56.148Z,25.1
2018-06-14T07:53:57.147Z,25.3
2018-06-14T07:54:58.144Z,25.3
2018-06-14T07:55:59.143Z,25.2
2018-06-14T07:57:00.146Z,25.2
2018-06-14T07:58:01.195Z,25.2
2018-06-14T07:59:02.144Z,25.2
2018-06-14T08:00:03.175Z,25.2
2018-06-14T08:01:04.137Z,25.3
2018-06-14T08:02:05.136Z,25.2
2018-06-14T08:03:06.186Z,25.2
2018-06-14T08:04:07.134Z,25.2
2018-06-14T08:05:08.131Z,25.2
2018-06-14T08:06:09.130Z,25.3
2018-06-14T08:07:10.133Z,25.2
2018-06-14T08:08:11.281Z,25.2
2018-06-14T08:09:12.128Z,25.2
2018-06-14T08:10:13.127Z,25.2
2018-06-14T08:11:14.127Z,25.2
2018-06-14T08:12:15.146Z,25.2
2018-06-14T08:13:16.176Z,25.2
2018-06-14T08:14:17.124Z,25.2
2018-06-14T08:15:18.125Z,25.3
2018-06-14T08:16:19.124Z,25.2
2018-06-14T08:17:20.118Z,25.3
2018-06-14T08:18:21.166Z,25.1
2018-06-14T08:19:22.116Z,25.2
2018-06-14T08:20:23.112Z,25.2
2018-06-14T08:21:24.114Z,25.3
2018-06-14T08:22:25.112Z,25.1
2018-06-14T08:23:26.270Z,25.2
2018-06-14T08:24:27.110Z,25.1
2018-06-14T08:25:28.112Z,25.2
2018-06-14T08:26:29.111Z,25.1
2018-06-14T08:27:30.112Z,25.3
2018-06-14T08:28:31.258Z,25.1
2018-06-14T08:29:32.106Z,25.2
2018-06-14T08:30:33.102Z,25.2
2018-06-14T08:31:34.100Z,25.2
2018-06-14T08:32:35.110Z,25.3
2018-06-14T08:33:36.451Z,25.3
2018-06-14T08:34:37.105Z,25.2
2018-06-14T08:35:38.096Z,25.3
2018-06-14T08:36:39.096Z,25.1
2018-06-14T08:37:40.098Z,25.3
2018-06-14T08:38:41.190Z,25.3
2018-06-14T08:39:42.095Z,25.2
2018-06-14T08:40:43.091Z,25.2
2018-06-14T08:41:44.088Z,25.1
2018-06-14T08:42:45.093Z,25.2
2018-06-14T08:43:46.140Z,25
2018-06-14T08:44:47.110Z,25.2
2018-06-14T08:45:48.090Z,25.2
2018-06-14T08:46:49.085Z,25
2018-06-14T08:47:50.085Z,25.1
2018-06-14T08:48:51.082Z,25.2
2018-06-14T08:49:52.083Z,25.1
2018-06-14T08:50:53.083Z,25
2018-06-14T08:51:54.086Z,25.1
2018-06-14T08:52:55.080Z,25.1
2018-06-14T08:53:56.080Z,25.1
2018-06-14T08:54:57.074Z,25.1
2018-06-14T08:55:58.075Z,25
2018-06-14T08:56:59.078Z,25.2
2018-06-14T08:58:00.075Z,25.1
2018-06-14T08:59:01.074Z,25.2
2018-06-14T09:00:02.067Z,25.2
2018-06-14T09:01:03.070Z,25.1
2018-06-14T09:02:04.067Z,25.1
2018-06-14T09:03:05.066Z,25.2
2018-06-14T09:04:06.115Z,25.1
2018-06-14T09:05:07.069Z,25.2
2018-06-14T09:06:08.166Z,25.1
2018-06-14T09:07:09.061Z,25.1
2018-06-14T09:08:10.060Z,25.2
2018-06-14T09:09:11.061Z,25.3
2018-06-14T09:10:12.056Z,25.1
2018-06-14T09:11:13.056Z,25.2
2018-06-14T09:12:14.056Z,25.1
2018-06-14T09:13:15.056Z,25.2
2018-06-14T09:14:16.118Z,25.1
2018-06-14T09:15:17.055Z,25.2
2018-06-14T09:16:18.050Z,25.1
2018-06-14T09:17:19.052Z,25.1
2018-06-14T09:18:20.055Z,25.2
2018-06-14T09:19:21.196Z,25.2
2018-06-14T09:20:22.043Z,25.2
2018-06-14T09:21:23.043Z,25.2
2018-06-14T09:22:24.046Z,25.1
2018-06-14T09:23:25.043Z,25.3
2018-06-14T09:24:26.093Z,25.1
2018-06-14T09:25:27.043Z,25.2
2018-06-14T09:26:28.042Z,25.2
2018-06-14T09:27:29.040Z,25.3
2018-06-14T09:28:30.040Z,25.1
2018-06-14T09:29:31.185Z,25.1
2018-06-14T09:30:32.035Z,25.1
2018-06-14T09:31:33.034Z,25.1
2018-06-14T09:32:34.031Z,25.1
2018-06-14T09:33:35.037Z,25.2
2018-06-14T09:34:36.031Z,25.2
2018-06-14T09:35:37.031Z,25.2
2018-06-14T09:36:38.026Z,25.1
2018-06-14T09:37:39.026Z,25.2
2018-06-14T09:38:40.026Z,25.2
2018-06-14T09:39:41.171Z,25.1
2018-06-14T09:40:42.026Z,25.2
2018-06-14T09:41:43.027Z,25.2
2018-06-14T09:42:44.061Z,25.2
2018-06-14T09:43:45.019Z,25.1
2018-06-14T09:44:46.188Z,25.2
2018-06-14T09:45:47.016Z,25.2
2018-06-14T09:46:48.019Z,25.2
2018-06-14T09:47:49.018Z,25.3
2018-06-14T09:48:50.017Z,25.1
2018-06-14T09:49:51.013Z,25.2
2018-06-14T09:50:52.014Z,25.2
2018-06-14T09:51:53.011Z,25.3
2018-06-14T09:52:54.012Z,25.2
2018-06-14T09:53:55.012Z,25.1
2018-06-14T09:54:56.058Z,25.3
2018-06-14T09:55:57.018Z,25.3
2018-06-14T09:56:58.006Z,25.2
2018-06-14T09:57:59.001Z,25.2
2018-06-14T09:59:00.001Z,25.1
2018-06-14T10:00:01.001Z,25.3
2018-06-14T10:01:02.005Z,25
2018-06-14T10:02:03.001Z,25.1
2018-06-14T10:03:04.006Z,25.2
2018-06-14T10:04:04.999Z,25.1
2018-06-14T10:05:06.143Z,25.1
2018-06-14T10:06:07.007Z,25.2
2018-06-14T10:07:07.994Z,25.2
2018-06-14T10:08:08.993Z,25.1
2018-06-14T10:09:09.991Z,25.2
2018-06-14T10:10:11.145Z,25.1
2018-06-14T10:11:11.991Z,25.1
2018-06-14T10:12:12.986Z,25.1
2018-06-14T10:13:13.987Z,25.1
2018-06-14T10:14:14.988Z,25.1
2018-06-14T10:15:16.333Z,25.1
2018-06-14T10:16:16.981Z,25.1
2018-06-14T10:17:17.981Z,25.2
2018-06-14T10:18:18.979Z,25.2
2018-06-14T10:19:19.979Z,25.2
2018-06-14T10:20:21.029Z,25.2
2018-06-14T10:21:21.981Z,25.2
2018-06-14T10:22:22.976Z,25.2
2018-06-14T10:23:23.974Z,25.3
2018-06-14T10:24:24.979Z,25.1
2018-06-14T10:25:26.323Z,25.3
2018-06-14T10:26:26.970Z,25.1
2018-06-14T10:27:27.971Z,25.2
2018-06-14T10:28:28.974Z,25.3
2018-06-14T10:29:29.965Z,25.2
2018-06-14T10:30:31.071Z,25.2
2018-06-14T10:31:31.965Z,25.2
2018-06-14T10:32:32.965Z,25.2
2018-06-14T10:33:33.961Z,25.2
2018-06-14T10:34:34.994Z,25.2
2018-06-14T10:35:36.309Z,25.2
2018-06-14T10:36:36.958Z,25.2
2018-06-14T10:37:37.958Z,25.3
2018-06-14T10:38:38.958Z,25.1
2018-06-14T10:39:39.957Z,25.2
2018-06-14T10:40:41.105Z,25.3
2018-06-14T10:41:41.956Z,25.2
2018-06-14T10:42:42.951Z,25.3
2018-06-14T10:43:43.954Z,25.2
2018-06-14T10:44:44.951Z,25.3
2018-06-14T10:45:46.001Z,25.3
2018-06-14T10:46:46.948Z,25.3
2018-06-14T10:47:47.944Z,25.2
2018-06-14T10:48:48.943Z,25.2
2018-06-14T10:49:49.943Z,25.2
2018-06-14T10:50:51.298Z,25.3
2018-06-14T10:51:51.939Z,25.3
2018-06-14T10:52:52.938Z,25.3
2018-06-14T10:53:53.940Z,25.3
2018-06-14T10:54:54.938Z,25.2
2018-06-14T10:55:56.089Z,25.3
2018-06-14T10:56:56.935Z,25.3
2018-06-14T10:57:57.932Z,25.3
2018-06-14T10:58:58.936Z,25.2
2018-06-14T10:59:59.940Z,25.3
2018-06-14T11:01:01.080Z,25.2
2018-06-14T11:02:01.929Z,25.2
2018-06-14T11:03:02.928Z,25.3
2018-06-14T11:04:03.933Z,25.3
2018-06-14T11:05:04.929Z,25.2
2018-06-14T11:06:05.980Z,25.4
2018-06-14T11:07:06.922Z,25.2
2018-06-14T11:08:07.925Z,25.2
2018-06-14T11:09:08.918Z,25.2
2018-06-14T11:10:09.925Z,25.3
2018-06-14T11:11:11.017Z,25.3
2018-06-14T11:12:11.920Z,25.3
2018-06-14T11:13:12.964Z,25.2
2018-06-14T11:14:13.916Z,25.3
2018-06-14T11:15:14.914Z,25.3
2018-06-14T11:16:15.966Z,25.3
2018-06-14T11:17:16.912Z,25.3
2018-06-14T11:18:17.912Z,25.2
2018-06-14T11:19:18.912Z,25.3
2018-06-14T11:20:19.911Z,25.4
2018-06-14T11:21:21.259Z,25.4
2018-06-14T11:22:21.906Z,25.3
2018-06-14T11:23:22.903Z,25.3
2018-06-14T11:24:23.902Z,25.3
2018-06-14T11:25:24.905Z,25.3
2018-06-14T11:26:26.005Z,25.3
2018-06-14T11:27:26.902Z,25.2
2018-06-14T11:28:27.898Z,25.3
2018-06-14T11:29:28.901Z,25.2
2018-06-14T11:30:29.896Z,25.3
2018-06-14T11:31:30.947Z,25.3
2018-06-14T11:32:31.896Z,25.3
2018-06-14T11:33:32.895Z,25.3
2018-06-14T11:34:33.896Z,25.3
2018-06-14T11:35:34.891Z,25.4
2018-06-14T11:36:35.940Z,25.2
2018-06-14T11:37:36.889Z,25.2
2018-06-14T11:38:37.891Z,25.3
2018-06-14T11:39:38.926Z,25.3
2018-06-14T11:40:39.888Z,25.3
2018-06-14T11:41:41.036Z,25.3
2018-06-14T11:42:41.882Z,25.3
2018-06-14T11:43:42.883Z,25.3
2018-06-14T11:44:43.880Z,25.3
2018-06-14T11:45:44.880Z,25.4
2018-06-14T11:46:46.028Z,25.1
2018-06-14T11:47:46.878Z,25.3
2018-06-14T11:48:47.879Z,25.3
2018-06-14T11:49:48.876Z,25.3
2018-06-14T11:50:49.876Z,25.3
2018-06-14T11:51:50.922Z,25.3
2018-06-14T11:52:51.876Z,25.2
2018-06-14T11:53:52.868Z,25.2
2018-06-14T11:54:53.868Z,25.2
2018-06-14T11:55:54.871Z,25.5
2018-06-14T11:56:56.015Z,25.3
2018-06-14T11:57:56.873Z,25.3
2018-06-14T11:58:57.863Z,25.3
2018-06-14T11:59:58.873Z,25.3
2018-06-14T12:00:59.864Z,25.4
2018-06-14T12:02:00.974Z,25.3
2018-06-14T12:03:01.864Z,25.3
2018-06-14T12:04:02.864Z,25.3
2018-06-14T12:05:03.859Z,25.3
2018-06-14T12:06:04.858Z,25.4
2018-06-14T12:07:05.957Z,25.3
2018-06-14T12:08:06.861Z,25.2
2018-06-14T12:09:07.853Z,25.2
2018-06-14T12:10:08.849Z,25.2
2018-06-14T12:11:09.851Z,25.3
2018-06-14T12:12:10.950Z,25.3
2018-06-14T12:13:11.850Z,25.2
2018-06-14T12:14:12.844Z,25.3
2018-06-14T12:15:13.902Z,25.2
2018-06-14T12:16:14.844Z,25.3
2018-06-14T12:17:15.901Z,25.3
2018-06-14T12:18:16.843Z,25.2
2018-06-14T12:19:17.840Z,25.3
2018-06-14T12:20:18.837Z,25.2
2018-06-14T12:21:19.872Z,25.2
2018-06-14T12:22:20.904Z,25.2
2018-06-14T12:23:21.839Z,25.3
2018-06-14T12:24:22.835Z,25.2
2018-06-14T12:25:23.833Z,25.2
2018-06-14T12:26:24.832Z,25.2
2018-06-14T12:27:25.984Z,25.1
2018-06-14T12:28:26.832Z,25.4
2018-06-14T12:29:27.831Z,25.2
2018-06-14T12:30:28.830Z,25.3
2018-06-14T12:31:29.828Z,25.2
2018-06-14T12:32:30.979Z,25.2
2018-06-14T12:33:31.826Z,25.3
2018-06-14T12:34:32.825Z,25.2
2018-06-14T12:35:33.822Z,25.3
2018-06-14T12:36:34.821Z,25.2
2018-06-14T12:37:35.842Z,25.3
2018-06-14T12:38:36.819Z,25.2
2018-06-14T12:39:37.815Z,25.3
2018-06-14T12:40:38.819Z,25.2
2018-06-14T12:41:39.816Z,25.1
2018-06-14T12:42:40.964Z,25.1
2018-06-14T12:43:41.814Z,25.1
2018-06-14T12:44:42.812Z,25.1
2018-06-14T12:45:43.810Z,25.2
2018-06-14T12:46:44.816Z,25.1
2018-06-14T12:47:45.956Z,25.1
2018-06-14T12:48:46.806Z,25.1
2018-06-14T12:49:47.814Z,25.3
2018-06-14T12:50:48.801Z,25.2
2018-06-14T12:51:49.805Z,25.2
2018-06-14T12:52:50.849Z,25.2
2018-06-14T12:53:51.801Z,25.1
2018-06-14T12:54:52.799Z,25.1
2018-06-14T12:55:53.800Z,25.2
2018-06-14T12:56:54.803Z,25.2
2018-06-14T12:57:55.847Z,25.2
2018-06-14T12:58:56.793Z,25.2
2018-06-14T12:59:57.793Z,25
2018-06-14T13:00:58.794Z,25.2
2018-06-14T13:01:59.792Z,25.2
2018-06-14T13:03:00.893Z,25.1
2018-06-14T13:04:01.833Z,25.2
2018-06-14T13:05:02.790Z,25.2
2018-06-14T13:06:03.785Z,25.1
2018-06-14T13:07:04.791Z,25.3
2018-06-14T13:08:05.832Z,25.1
2018-06-14T13:09:06.786Z,25.1
2018-06-14T13:10:07.781Z,25.2
2018-06-14T13:11:08.811Z,25.2
2018-06-14T13:12:09.779Z,25.2
2018-06-14T13:13:10.882Z,25.2
2018-06-14T13:14:11.779Z,25.1
2018-06-14T13:15:12.777Z,25.3
2018-06-14T13:16:13.776Z,25.2
2018-06-14T13:17:14.772Z,25.2
2018-06-14T13:18:15.824Z,25.2
2018-06-14T13:19:16.769Z,25.1
2018-06-14T13:20:17.772Z,25.1
2018-06-14T13:21:18.772Z,25.2
2018-06-14T13:22:19.770Z,25.1
2018-06-14T13:23:20.769Z,25.2
2018-06-14T13:24:21.764Z,25.2
2018-06-14T13:25:22.804Z,25.2
2018-06-14T13:26:23.762Z,25.2
2018-06-14T13:27:24.760Z,25.3
2018-06-14T13:28:25.813Z,25.2
2018-06-14T13:29:26.758Z,25.3
2018-06-14T13:30:27.762Z,25.1
2018-06-14T13:31:28.759Z,25.2